Frey Ranch - Fallon, Nevada Weather observations

Data are for observation ending at time listed.
 Day   Time    Ave.   Ave.  Ave.  Vector   Max.   Stn.    Total    Solar   Ave.  
  of    of     Air    Rel.  Wind   Wind    Wind   Baro.  Precip.   Rad.    Soil  
Year   Day     Temp.  Hum.  Speed  Dir.    Gust   Pres.                    Temp. 
2016   (PST)    F      %     mph   deg.    mph     mb.     in.     W/m2     F   
------------------------------------------------------------------------------
 242    3:00   56.5    46    0.3     3      2.5   999.0    0.00       0    84.2
 242    3:10   54.8    55    0.3   141      3.1   999.0    0.00       0    84.1
 242    3:20   55.0    52    1.8    55      4.3   999.0    0.00       0    84.1
 242    3:30   54.5    54    3.0    71      4.5   999.0    0.00       0    84.0
 242    3:40   55.0    52    2.8    57      4.5   999.0    0.00       0    83.9
 242    3:50   54.8    53    3.0    64      4.3   999.0    0.00       0    83.9
 242    4:00   54.7    47    2.4    66      3.6   999.0    0.00       0    83.8
 242    4:10   55.1    44    2.2    69      3.3   999.0    0.00       0    83.7
 242    4:20   55.5    48    0.5    65      2.5   999.0    0.00       0    83.7
 242    4:30   54.1    57    1.1    72      2.0   999.0    0.00       0    83.6
 242    4:40   53.5    55    0.6    69      1.9   999.0    0.00       0    83.5
 242    4:50   53.1    54    1.0    65      2.0   999.0    0.00       0    83.4
 242    5:00   53.5    53    1.4    64      2.4   999.0    0.00       0    83.4
 242    5:10   53.7    54    1.6    73      2.6   999.0    0.00       1    83.3
 242    5:20   53.4    54    0.3    60      2.4   999.0    0.00       2    83.2
 242    5:30   52.5    61    0.1    59      1.1   999.0    0.00       7    83.2
 242    5:40   53.1    51    1.2   326      2.2   999.0    0.00      16    83.1
 242    5:50   55.2    44    1.7   313      2.2   999.0    0.00      33    83.0
 242    6:00   57.2    41    1.9   302      3.1   999.0    0.00      58    82.9
 242    6:10   57.4    43    2.0   294      3.0   999.0    0.00      91    82.9
 242    6:20   59.3    42    1.4   271      2.5   999.0    0.00     127    82.8
 242    6:30   59.7    43    1.6   257      2.3   999.0    0.00     160    82.7
 242    6:40   60.0    45    1.5   230      2.4   999.0    0.00     193    82.7
 242    6:50   62.3    41    1.8   238      2.4   999.0    0.00     231    82.6
 242    7:00   64.6    37    1.7   232      2.4   999.0    0.00     271    82.5
 242    7:10   66.3    34    1.9   207      2.8   999.0    0.00     309    82.5
 242    7:20   67.7    33    2.1   140      3.5   999.0    0.00     291    82.4
 242    7:30   68.3    32    2.7   120      3.9   999.0    0.00     313    82.3
 242    7:40   69.1    29    2.8   114      4.3   999.0    0.00     412    82.2
 242    7:50   71.9    26    2.3   128      4.0   999.0    0.00     472    82.1
 242    8:00   73.9    23    2.5   121      3.9   999.0    0.00     520    82.1
 242    8:10   76.4    19    1.3   119      2.8   999.0    0.00     502    82.0
 242    8:20   79.6    16    0.8   127      1.9   999.0    0.00     519    81.9
 242    8:30   81.6    15    0.9   350      2.9   999.0    0.00     639    81.9
 242    8:40   80.7    15    1.9   336      4.5   999.0    0.00     775    81.8
 242    8:50   81.6    14    1.3   322      3.1   999.0    0.00     403    81.7
 242    9:00   79.4    16    1.2   341      2.7   999.0    0.00     502    81.7
 242    9:10   81.6    14    1.1   213      1.7   999.0    0.00     687    81.6
 242    9:20   83.0    12    1.3   224      2.2   999.0    0.00     672    81.6
 242    9:30   83.9    12    1.6   256      3.4   999.0    0.00     782    81.5
 242    9:40   83.8    12    1.9   224      4.5   999.0    0.00     796    81.5
 242    9:50   86.1    11    1.6   347      3.9   999.0    0.00     830    81.4
 242   10:00   85.7    11    1.6   331      3.7   999.0    0.00     862    81.4
 242   10:10   86.1    10    2.2   301      4.7   999.0    0.00     887    81.3
 242   10:20   85.8    10    2.7   261      5.3   999.0    0.00     854    81.3
 242   10:30   85.4    11    3.3   274      6.9   999.0    0.00     928    81.3
 242   10:40   86.1    12    3.0   298      6.0   999.0    0.00     926    81.3
 242   10:50   87.0    12    3.4   302      8.0   999.0    0.00     986    81.2
 242   11:00   86.8    11    2.9   339      6.4   999.0    0.00     662    81.2
 242   11:10   86.5    11    2.9   321      4.9   999.0    0.00     634    81.2
 242   11:20   86.7    12    3.5   302      7.0   999.0    0.00     895    81.2
 242   11:30   88.0    11    1.6   155      5.6   999.0    0.00     938    81.2
 242   11:40   88.3    11    2.6   335      6.4   999.0    0.00     770    81.3
 242   11:50   88.2    10    3.0   336      6.2   999.0    0.00    1048    81.3
 242   12:00   88.7    11    3.0   330      6.5   999.0    0.00    1010    81.3
 242   12:10   88.9    11    3.7   342      7.0   999.0    0.00     946    81.3
 242   12:20   89.0    11    2.8   320      5.3   999.0    0.00     732    81.4
 242   12:30   88.7    12    3.5   334      6.1   999.0    0.00     592    81.4
 242   12:40   89.9    11    2.3    15      4.8   999.0    0.00     923    81.5
 242   12:50   92.4    10    2.2   340      5.4   999.0    0.00    1017    81.5
 242   13:00   92.6    10    3.2    49      9.2   999.0    0.00     835    81.6
 242   13:10   93.2    10    2.2    35      6.3   999.0    0.00     928    81.7
 242   13:20   94.0     9    2.5    32      5.7   999.0    0.00     920    81.7
 242   13:30   95.3     9    2.6   360      6.5   999.0    0.00     894    81.8
 242   13:40   95.4     9    2.5     4      8.2   999.0    0.00     874    81.9
 242   13:50   94.6     9    2.7   341      5.9   999.0    0.00     855    81.9
 242   14:00   95.0     8    2.2   329      4.3   999.0    0.00     832    82.0
 242   14:10   95.5     8    2.4   354      5.2   999.0    0.00     809    82.1
 242   14:20   95.9     8    2.6   317      5.8   999.0    0.00     786    82.2
 242   14:30   94.4     9    2.9   194      6.9   999.0    0.00     762    82.3
 242   14:40   94.5    10    3.0   333      5.7   999.0    0.00     740    82.4
 242   14:50   94.8    10    3.0   328      8.3   999.0    0.00     718    82.5
 242   15:00   94.5    10    3.3   323      7.4   999.0    0.00     691    82.6
 242   15:10   94.9    10    2.3   353      5.0   999.0    0.00     660    82.7
 242   15:20   95.5    10    2.9   344      6.0   999.0    0.00     629    82.8
 242   15:30   94.3    11    3.3   332      7.6   999.0    0.00     602    82.9
 242   15:40   94.4    10    2.2   348      5.3   999.0    0.00     571    83.0
 242   15:50   94.6    10    2.6   334      6.2   999.0    0.00     541    83.1
 242   16:00   94.7    10    2.3   337      4.7   999.0    0.00     512    83.2
 242   16:10   95.2    10    1.7   328      5.2   999.0    0.00     478    83.3
 242   16:20   94.8    10    2.2   333      6.7   999.0    0.00     448    83.4
 242   16:30   95.0    10    1.6   330      4.5   999.0    0.00     410    83.5
 242   16:40   94.6    10    1.7   341      4.5   999.0    0.00     365    83.6
 242   16:50   94.1    10    1.7   348      3.3   999.0    0.00     329    83.7
 242   17:00   93.8    11    1.6   336      3.3   999.0    0.00     286    83.8
 242   17:10   92.0    12    1.5   337      4.6   999.0    0.00     101    83.9
 242   17:20   87.9    13    1.7   333      2.7   999.0    0.00      47    84.0
 242   17:30   85.3    17    1.2   318      1.9   999.0    0.00      50    84.1
 242   17:40   83.6    19    0.9   301      1.9   999.0    0.00      54    84.2
 242   17:50   83.5    17    0.7   341      2.2   999.0    0.00      85    84.3
 242   18:00   84.8    16    1.0   344      2.4   999.0    0.00      67    84.4
 242   18:10   84.4    16    1.2    12      2.0   999.0    0.00      35    84.5
 242   18:20   83.1    16    1.0     5      2.3   999.0    0.00      21    84.6
 242   18:30   81.6    18    1.3   342      2.4   999.0    0.00       5    84.7
 242   18:40   80.4    19    1.2   327      1.9   999.0    0.00       2    84.8
 242   18:50   79.2    19    1.5   320      2.3   999.0    0.00       1    84.9
 242   19:00   78.3    20    1.3   319      2.0   999.0    0.00       0    85.0
 242   19:10   77.5    20    1.5    65      7.1   999.0    0.00       0    85.0
 242   19:20   77.0    21    0.5    21      2.2   999.0    0.00       0    85.1
 242   19:30   73.7    26    2.6   304      6.8   999.0    0.00       0    85.2
 242   19:40   75.9    19    5.0   296      8.3   999.0    0.00       0    85.2
 242   19:50   78.4    16    2.8   318      4.3   999.0    0.00       0    85.3
 242   20:00   77.5    18    2.2   325      3.9   999.0    0.00       0    85.3
 242   20:10   75.5    22    2.2   320      3.7   999.0    0.00       0    85.4
 242   20:20   72.5    30    0.6   298      2.7   999.0    0.00       0    85.4
 242   20:30   69.7    36    1.0   297      2.5   999.0    0.00       0    85.4
 242   20:40   68.9    39    1.7   284      3.6   999.0    0.00       0    85.4
 242   20:50   69.4    27    2.7   284      4.3   999.0    0.00       0    85.5
 242   21:00   71.3    21    3.6   284      6.3   999.0    0.00       0    85.5
 242   21:10   71.5    21    3.3   294      6.5   999.0    0.00       0    85.5
 242   21:20   71.6    20    3.6   310      6.0   999.0    0.00       0    85.5
 242   21:30   70.7    24    0.7     5      3.5   999.0    0.00       0    85.5
 242   21:40   69.6    25    0.6   344      3.3   999.0    0.00       0    85.5
 242   21:50   68.4    30    3.0   236      5.6   999.0    0.00       0    85.5
 242   22:00   65.4    33    0.7   237      3.3   999.0    0.00       0    85.5
 242   22:10   65.4    32    0.4   244      1.4   999.0    0.00       0    85.5
 242   22:20   65.1    37    1.5    90      4.3   999.0    0.00       0    85.5
 242   22:30   64.2    39    0.3   122      1.7   999.0    0.00       0    85.4
 242   22:40   65.7    31    1.7    75      3.6   999.0    0.00       0    85.4
 242   22:50   67.2    30    1.3    77      3.1   999.0    0.00       0    85.4
 242   23:00   65.4    34    2.6    78      4.2   999.0    0.00       0    85.4
 242   23:10   64.5    38    0.9    96      2.0   999.0    0.00       0    85.4
 242   23:20   64.0    40    0.2    99      1.2   999.0    0.00       0    85.3
 242   23:30   64.3    43    2.0    75      5.4   999.0    0.00       0    85.3
 242   23:40   64.1    42    1.0    65      4.5   999.0    0.00       0    85.2
 242   23:50   63.1    48    2.0    77      3.7   999.0    0.00       0    85.2
 243    0:00   63.4    46    0.5    85      3.4   999.0    0.00       0    85.2
 243    0:10   63.3    44    1.1    74      2.3   999.0    0.00       0    85.1
 243    0:20   63.5    47    0.9    65      2.4   999.0    0.00       0    85.1
 243    0:30   61.7    53    1.4   294      2.6   999.0    0.00       0    85.0
 243    0:40   60.8    54    1.0   305      2.7   999.0    0.00       0    85.0
 243    0:50   61.0    52    1.2   315      1.8   999.0    0.00       0    84.9
 243    1:00   62.2    46    1.5   315      2.2   999.0    0.00       0    84.9
 243    1:10   61.8    54    0.2   327      1.2   999.0    0.00       0    84.8
 243    1:20   61.6    52    0.8    72      2.2   999.0    0.00       0    84.8
 243    1:30   61.1    56    0.0     0      0.0   999.0    0.00       0    84.7
 243    1:40   59.7    60    0.0     0      0.0   999.0    0.00       0    84.7
 243    1:50   59.7    53    0.5    72      2.3   999.0    0.00       0    84.6
 243    2:00   60.5    54    2.5    74      3.9   999.0    0.00       0    84.6
 243    2:10   60.2    49    2.6    78      3.5   999.0    0.00       0    84.5
 243    2:20   59.8    47    1.7    91      2.6   999.0    0.00       0    84.4
 243    2:30   59.6    47    2.3    76      3.6   999.0    0.00       0    84.4
 243    2:40   59.5    46    2.4    78      3.4   999.0    0.00       0    84.3
 243    2:50   59.4    46    1.9    82      2.9   999.0    0.00       0    84.3

Return to Frey Ranch - Fallon, Nevada graphs page.


Western Regional Climate Center,wrcc@dri.edu